createdAt,value
2022-09-28T00:03:44.317Z,98554.23
2022-09-28T00:06:38.190Z,98551.83
2022-09-28T00:09:20.473Z,98545.23
2022-09-28T00:12:15.643Z,98539.20
2022-09-28T00:14:46.661Z,98540.71
2022-09-28T00:17:24.166Z,98537.25
2022-09-28T00:19:54.321Z,98527.00
2022-09-28T00:22:30.526Z,98526.39
2022-09-28T00:25:02.651Z,98525.20
2022-09-28T00:27:36.993Z,98519.81
2022-09-28T00:30:08.569Z,98516.86
2022-09-28T00:32:42.495Z,98514.52
2022-09-28T00:35:21.660Z,98511.27
2022-09-28T00:37:51.404Z,98511.38
2022-09-28T00:40:29.146Z,98508.73
2022-09-28T00:43:16.710Z,98507.67
2022-09-28T00:46:02.740Z,98505.09
2022-09-28T00:48:39.890Z,98507.52
2022-09-28T00:51:22.582Z,98508.09
2022-09-28T00:53:58.594Z,98505.42
2022-09-28T00:56:56.403Z,98508.95
2022-09-28T00:59:25.106Z,98508.08
2022-09-28T01:01:56.932Z,98504.55
2022-09-28T01:04:29.282Z,98503.34
2022-09-28T01:07:16.713Z,98501.55
2022-09-28T01:10:02.602Z,98500.39
2022-09-28T01:12:42.114Z,98499.88
2022-09-28T01:15:32.829Z,98499.89
2022-09-28T01:18:34.626Z,98501.64
2022-09-28T01:21:22.538Z,98501.10
2022-09-28T01:24:20.735Z,98501.85
2022-09-28T01:27:29.484Z,98498.90
2022-09-28T01:30:21.078Z,98495.05
2022-09-28T01:33:22.779Z,98493.84
2022-09-28T01:35:57.067Z,98489.89
2022-09-28T01:38:51.596Z,98490.24
2022-09-28T01:41:24.746Z,98490.86
2022-09-28T01:44:23.826Z,98487.56
2022-09-28T01:47:03.749Z,98487.50
2022-09-28T01:49:42.004Z,98485.00
2022-09-28T01:52:47.190Z,98484.09
2022-09-28T01:55:31.836Z,98482.92
2022-09-28T01:58:36.978Z,98481.53
2022-09-28T02:01:27.195Z,98479.23
2022-09-28T02:04:14.290Z,98483.45
2022-09-28T02:07:21.838Z,98486.65
2022-09-28T02:10:36.010Z,98486.88
2022-09-28T02:13:43.179Z,98484.66
2022-09-28T02:16:46.136Z,98485.96
2022-09-28T02:19:31.325Z,98481.99
2022-09-28T02:22:44.426Z,98483.07
2022-09-28T02:25:46.748Z,98483.04
2022-09-28T02:28:15.415Z,98483.66
2022-09-28T02:30:49.308Z,98479.73
2022-09-28T02:33:45.948Z,98484.67
2022-09-28T02:36:40.286Z,98481.80
2022-09-28T02:39:22.641Z,98480.27
2022-09-28T02:42:31.957Z,98479.03
2022-09-28T02:45:39.005Z,98477.98
2022-09-28T02:48:47.262Z,98477.00
2022-09-28T02:51:35.156Z,98479.02
2022-09-28T02:54:38.628Z,98474.45
2022-09-28T02:57:54.601Z,98473.83
2022-09-28T03:00:24.507Z,98473.25
2022-09-28T03:03:21.483Z,98478.01
2022-09-28T03:06:18.680Z,98479.13
2022-09-28T03:09:02.544Z,98480.95
2022-09-28T03:11:53.873Z,98484.49
2022-09-28T03:14:22.424Z,98487.04
2022-09-28T03:17:18.727Z,98491.25
2022-09-28T03:20:03.255Z,98490.61
2022-09-28T03:22:35.158Z,98487.16
2022-09-28T03:25:07.832Z,98482.54
2022-09-28T03:27:54.489Z,98479.31
2022-09-28T03:30:23.229Z,98480.06
2022-09-28T03:33:04.247Z,98484.77
2022-09-28T03:35:51.572Z,98482.55
2022-09-28T03:38:31.191Z,98481.76
2022-09-28T03:41:01.874Z,98478.36
2022-09-28T03:43:54.594Z,98475.91
2022-09-28T03:46:28.199Z,98482.48
2022-09-28T03:49:20.186Z,98480.89
2022-09-28T03:51:56.851Z,98476.83
2022-09-28T03:54:37.940Z,98475.70
2022-09-28T03:57:09.654Z,98474.84
2022-09-28T04:00:05.118Z,98473.03
2022-09-28T04:02:48.691Z,98470.34
2022-09-28T04:05:17.385Z,98472.79
2022-09-28T04:07:53.952Z,98475.30
2022-09-28T04:10:26.018Z,98474.34
2022-09-28T04:13:05.503Z,98475.10
2022-09-28T04:15:36.916Z,98477.86
2022-09-28T04:18:14.655Z,98474.89
2022-09-28T04:21:20.732Z,98471.11
2022-09-28T04:24:01.768Z,98466.80
2022-09-28T04:26:34.369Z,98461.58
2022-09-28T04:29:18.286Z,98461.05
2022-09-28T04:32:06.039Z,98465.33
2022-09-28T04:34:44.312Z,98463.27
2022-09-28T04:37:31.389Z,98463.34
2022-09-28T04:40:09.291Z,98463.27
2022-09-28T04:42:40.046Z,98465.32
2022-09-28T04:45:22.850Z,98468.67
2022-09-28T04:47:55.967Z,98466.40
2022-09-28T04:51:05.532Z,98466.08
2022-09-28T04:53:40.169Z,98466.16
2022-09-28T04:56:14.823Z,98466.70
2022-09-28T04:58:43.825Z,98463.42
2022-09-28T05:01:25.230Z,98464.22
2022-09-28T05:04:02.083Z,98465.04
2022-09-28T05:07:03.351Z,98462.75
2022-09-28T05:09:41.109Z,98466.70
2022-09-28T05:12:33.988Z,98463.23
2022-09-28T05:15:08.450Z,98461.27
2022-09-28T05:17:39.434Z,98463.41
2022-09-28T05:20:15.271Z,98465.02
2022-09-28T05:22:45.479Z,98464.41
2022-09-28T05:25:20.609Z,98461.11
2022-09-28T05:28:03.889Z,98458.96
2022-09-28T05:30:52.478Z,98457.55
2022-09-28T05:33:47.295Z,98459.12
2022-09-28T05:36:27.070Z,98459.98
2022-09-28T05:39:04.251Z,98456.95
2022-09-28T05:41:41.758Z,98458.61
2022-09-28T05:44:10.496Z,98452.63
2022-09-28T05:46:39.322Z,98450.70
2022-09-28T05:49:13.921Z,98449.13
2022-09-28T05:51:42.069Z,98446.23
2022-09-28T05:54:20.157Z,98442.40
2022-09-28T05:56:51.275Z,98438.49
2022-09-28T05:59:19.574Z,98439.81
2022-09-28T06:01:55.697Z,98437.77
2022-09-28T06:04:24.264Z,98435.54
2022-09-28T06:06:57.529Z,98438.48
2022-09-28T06:09:26.365Z,98438.76
2022-09-28T06:12:00.185Z,98435.30
2022-09-28T06:14:39.206Z,98440.86
2022-09-28T06:17:10.634Z,98443.82
2022-09-28T06:19:41.303Z,98445.08
2022-09-28T06:22:26.316Z,98447.05
2022-09-28T06:25:22.398Z,98446.48
2022-09-28T06:28:09.295Z,98449.29
2022-09-28T06:30:38.845Z,98444.24
2022-09-28T06:33:15.161Z,98443.36
2022-09-28T06:35:45.648Z,98436.09
2022-09-28T06:38:14.209Z,98434.48
2022-09-28T06:40:42.221Z,98430.27
2022-09-28T06:43:15.263Z,98433.41
2022-09-28T06:46:02.918Z,98433.08
2022-09-28T06:49:06.370Z,98420.88
2022-09-28T06:51:57.027Z,98415.40
2022-09-28T06:54:57.359Z,98413.65
2022-09-28T06:57:35.805Z,98408.01
2022-09-28T07:00:04.639Z,98408.43
2022-09-28T07:02:32.893Z,98406.15
2022-09-28T07:05:30.028Z,98403.88
2022-09-28T07:08:22.176Z,98399.35
2022-09-28T07:11:09.007Z,98399.48
2022-09-28T07:13:50.768Z,98405.30
2022-09-28T07:16:28.599Z,98403.23
2022-09-28T07:19:03.094Z,98403.77
2022-09-28T07:21:34.262Z,98408.91
2022-09-28T07:24:14.363Z,98419.84
2022-09-28T07:27:12.714Z,98422.01
2022-09-28T07:29:58.921Z,98423.25
2022-09-28T07:32:58.138Z,98424.97
2022-09-28T07:35:42.021Z,98422.48
2022-09-28T07:38:19.347Z,98421.90
2022-09-28T07:41:07.212Z,98420.55
2022-09-28T07:43:37.077Z,98413.40
2022-09-28T07:46:13.969Z,98411.91
2022-09-28T07:48:58.668Z,98411.91
2022-09-28T07:51:51.993Z,98409.50
2022-09-28T07:54:35.863Z,98405.28
2022-09-28T07:57:27.993Z,98409.75
2022-09-28T08:00:34.522Z,98406.66
2022-09-28T08:03:10.763Z,98407.65
2022-09-28T08:05:41.298Z,98409.11
2022-09-28T08:08:14.599Z,98413.94
2022-09-28T08:10:47.715Z,98408.37
2022-09-28T08:13:37.864Z,98403.02
2022-09-28T08:19:20.847Z,98404.84
2022-09-28T08:21:49.864Z,98416.77
2022-09-28T08:24:19.583Z,98406.26
2022-09-28T08:26:49.073Z,98405.23
2022-09-28T08:29:19.833Z,98399.90
2022-09-28T08:31:53.228Z,98388.90
2022-09-28T08:34:48.071Z,98388.16
2022-09-28T08:37:28.917Z,98391.53
2022-09-28T08:40:25.234Z,98391.42
2022-09-28T08:43:23.560Z,98387.99
2022-09-28T08:46:17.380Z,98382.05
2022-09-28T08:49:30.374Z,98381.23
2022-09-28T08:52:35.868Z,98375.32
2022-09-28T08:55:34.734Z,98377.80
2022-09-28T08:58:17.781Z,98377.88
2022-09-28T09:00:52.009Z,98371.92
2022-09-28T09:03:30.499Z,98371.13
2022-09-28T09:06:34.725Z,98365.73
2022-09-28T09:09:36.109Z,98369.96
2022-09-28T09:12:21.877Z,98365.73
2022-09-28T09:15:19.278Z,98363.76
2022-09-28T09:18:00.262Z,98365.33
2022-09-28T09:21:15.756Z,98352.67
2022-09-28T09:24:11.609Z,98353.06
2022-09-28T09:26:41.745Z,98355.36
2022-09-28T09:29:32.244Z,98357.52
2022-09-28T09:32:25.991Z,98354.58
2022-09-28T09:35:33.005Z,98353.42
2022-09-28T09:38:31.355Z,98349.89
2022-09-28T09:42:10.428Z,98349.95
2022-09-28T09:45:06.252Z,98342.23
2022-09-28T09:48:03.986Z,98338.35
2022-09-28T09:50:45.119Z,98336.73
2022-09-28T09:53:28.971Z,98338.43
2022-09-28T09:56:17.290Z,98336.05
2022-09-28T09:59:14.402Z,98333.95
2022-09-28T10:02:26.632Z,98329.09
2022-09-28T10:05:20.044Z,98329.77
2022-09-28T10:08:03.766Z,98334.26
2022-09-28T10:10:39.106Z,98338.05
2022-09-28T10:13:13.770Z,98339.64
2022-09-28T10:15:45.568Z,98337.44
2022-09-28T10:18:21.494Z,98336.14
2022-09-28T10:21:17.062Z,98335.48
2022-09-28T10:23:57.548Z,98335.74
2022-09-28T10:26:56.175Z,98342.33
2022-09-28T10:29:27.508Z,98342.46
2022-09-28T10:31:55.784Z,98349.65
2022-09-28T10:34:36.219Z,98355.53
2022-09-28T10:37:11.505Z,98364.83
2022-09-28T10:39:56.147Z,98357.48
2022-09-28T10:42:33.955Z,98361.80
2022-09-28T10:45:22.000Z,98361.70
2022-09-28T10:47:50.549Z,98363.13
2022-09-28T10:50:28.067Z,98368.90
2022-09-28T10:53:20.375Z,98381.73
2022-09-28T10:56:18.836Z,98383.25
2022-09-28T10:58:48.926Z,98386.70
2022-09-28T11:01:31.375Z,98388.50
2022-09-28T11:04:10.517Z,98392.39
2022-09-28T11:06:42.173Z,98385.48
2022-09-28T11:09:41.581Z,98376.02
2022-09-28T11:12:17.861Z,98371.60
2022-09-28T11:14:55.715Z,98373.41
2022-09-28T11:17:44.113Z,98376.47
2022-09-28T11:20:27.799Z,98375.25
2022-09-28T11:23:18.447Z,98366.28
2022-09-28T11:26:07.890Z,98371.94
2022-09-28T11:28:39.814Z,98371.19
2022-09-28T11:31:12.701Z,98357.41
2022-09-28T11:34:31.438Z,98365.01
2022-09-28T11:37:33.868Z,98365.39
2022-09-28T11:40:23.049Z,98361.27
2022-09-28T11:43:46.720Z,98365.20
2022-09-28T11:46:27.863Z,98364.92
2022-09-28T11:49:20.838Z,98362.45
2022-09-28T11:51:53.419Z,98366.39
2022-09-28T11:54:33.879Z,98368.11
2022-09-28T11:57:07.157Z,98365.79
2022-09-28T11:59:54.085Z,98365.88
2022-09-28T12:02:27.898Z,98368.77
2022-09-28T12:05:17.127Z,98373.95
2022-09-28T12:07:59.274Z,98369.44
2022-09-28T12:11:09.896Z,98358.94
2022-09-28T12:14:01.433Z,98352.95
2022-09-28T12:17:05.890Z,98352.32
2022-09-28T12:19:45.371Z,98346.63
2022-09-28T12:22:23.805Z,98344.98
2022-09-28T12:24:57.423Z,98341.73
2022-09-28T12:27:35.307Z,98340.18
2022-09-28T12:30:16.717Z,98337.77
2022-09-28T12:32:51.460Z,98337.95
2022-09-28T12:35:48.976Z,98342.52
2022-09-28T12:38:22.937Z,98335.45
2022-09-28T12:41:31.462Z,98327.31
2022-09-28T12:44:07.585Z,98330.16
2022-09-28T12:46:59.091Z,98323.55
2022-09-28T12:53:26.176Z,98308.38
2022-09-28T12:56:03.455Z,98296.79
2022-09-28T12:58:50.918Z,98294.73
2022-09-28T13:01:43.576Z,98287.03
2022-09-28T13:04:39.398Z,98296.59
2022-09-28T13:07:34.062Z,98293.91
2022-09-28T13:10:16.972Z,98281.91
2022-09-28T13:13:44.926Z,98281.96
2022-09-28T13:17:05.490Z,98280.66
2022-09-28T13:19:52.247Z,98283.13
2022-09-28T13:22:50.123Z,98285.75
2022-09-28T13:25:22.416Z,98286.63
2022-09-28T13:28:01.326Z,98289.89
2022-09-28T13:30:36.791Z,98289.38
2022-09-28T13:33:08.271Z,98287.23
2022-09-28T13:35:43.357Z,98285.16
2022-09-28T13:38:25.652Z,98282.12
2022-09-28T13:41:06.668Z,98277.25
2022-09-28T13:43:40.168Z,98282.58
2022-09-28T13:46:24.532Z,98286.31
2022-09-28T13:49:14.049Z,98285.02
2022-09-28T13:52:02.944Z,98284.88
2022-09-28T13:54:50.525Z,98287.99
2022-09-28T13:57:27.506Z,98293.50
2022-09-28T14:00:11.390Z,98283.55
2022-09-28T14:03:21.252Z,98276.31
2022-09-28T14:06:11.613Z,98275.75
2022-09-28T14:09:06.514Z,98272.79
2022-09-28T14:11:37.667Z,98284.34
2022-09-28T14:14:24.824Z,98290.11
2022-09-28T14:17:20.309Z,98289.09
2022-09-28T14:20:05.415Z,98281.02
2022-09-28T14:22:37.781Z,98271.94
2022-09-28T14:25:27.860Z,98273.02
2022-09-28T14:28:06.815Z,98266.45
2022-09-28T14:30:37.926Z,98267.91
2022-09-28T14:33:21.240Z,98271.77
2022-09-28T14:35:57.061Z,98267.23
2022-09-28T14:39:08.634Z,98264.29
2022-09-28T14:41:44.109Z,98262.84
2022-09-28T14:44:14.657Z,98263.93
2022-09-28T14:46:45.664Z,98265.69
2022-09-28T14:49:25.633Z,98261.02
2022-09-28T14:51:56.545Z,98259.88
2022-09-28T14:54:31.103Z,98255.20
2022-09-28T14:57:23.806Z,98247.94
2022-09-28T14:59:52.342Z,98249.71
2022-09-28T15:02:26.552Z,98250.29
2022-09-28T15:05:00.348Z,98245.61
2022-09-28T15:07:42.391Z,98248.58
2022-09-28T15:10:33.632Z,98251.52
2022-09-28T15:13:21.487Z,98254.04
2022-09-28T15:15:59.724Z,98253.32
2022-09-28T15:18:55.117Z,98255.81
2022-09-28T15:21:32.053Z,98259.23
2022-09-28T15:24:00.055Z,98257.20
2022-09-28T15:26:34.247Z,98262.92
2022-09-28T15:29:03.540Z,98261.64
2022-09-28T15:31:36.514Z,98261.13
2022-09-28T15:34:22.889Z,98264.19
2022-09-28T15:36:50.992Z,98258.48
2022-09-28T15:39:23.772Z,98259.38
2022-09-28T15:41:52.902Z,98267.54
2022-09-28T15:44:29.654Z,98267.03
2022-09-28T15:47:16.898Z,98273.08
2022-09-28T15:49:58.773Z,98275.16
2022-09-28T15:52:38.525Z,98282.21
2022-09-28T15:55:31.669Z,98285.59
2022-09-28T15:58:17.287Z,98291.75
2022-09-28T16:00:50.830Z,98300.39
2022-09-28T16:03:28.896Z,98301.59
2022-09-28T16:06:11.057Z,98304.09
2022-09-28T16:08:45.263Z,98312.06
2022-09-28T16:11:29.226Z,98311.39
2022-09-28T16:14:08.854Z,98314.15
2022-09-28T16:16:46.620Z,98315.88
2022-09-28T16:19:38.374Z,98314.61
2022-09-28T16:22:14.301Z,98317.04
2022-09-28T16:24:53.727Z,98318.33
2022-09-28T16:27:25.063Z,98318.27
2022-09-28T16:30:25.846Z,98315.52
2022-09-28T16:32:57.137Z,98319.79
2022-09-28T16:35:30.709Z,98319.22
2022-09-28T16:38:01.753Z,98318.31
2022-09-28T16:40:32.621Z,98321.27
2022-09-28T16:43:04.518Z,98324.91
2022-09-28T16:45:35.300Z,98325.20
2022-09-28T16:48:04.781Z,98330.94
2022-09-28T16:50:38.381Z,98334.88
2022-09-28T16:53:37.307Z,98342.30
2022-09-28T16:56:14.677Z,98346.70
2022-09-28T16:58:44.224Z,98350.52
2022-09-28T17:01:21.309Z,98353.92
2022-09-28T17:03:53.828Z,98354.71
2022-09-28T17:06:29.139Z,98358.79
2022-09-28T17:09:06.974Z,98361.71
2022-09-28T17:11:35.077Z,98361.83
2022-09-28T17:14:07.117Z,98367.06
2022-09-28T17:17:03.811Z,98369.07
2022-09-28T17:19:31.608Z,98370.11
2022-09-28T17:22:08.092Z,98368.92
2022-09-28T17:24:41.802Z,98369.55
2022-09-28T17:27:32.986Z,98380.59
2022-09-28T17:30:13.658Z,98382.84
2022-09-28T17:32:48.117Z,98386.98
2022-09-28T17:35:26.346Z,98390.77
2022-09-28T17:38:00.175Z,98394.02
2022-09-28T17:40:29.697Z,98396.42
2022-09-28T17:42:59.112Z,98398.80
2022-09-28T17:45:28.876Z,98402.11
2022-09-28T17:48:01.742Z,98400.81
2022-09-28T17:50:36.385Z,98403.45
2022-09-28T17:53:36.501Z,98405.52
2022-09-28T17:56:08.040Z,98408.02
2022-09-28T17:58:43.024Z,98415.02
2022-09-28T18:01:12.510Z,98415.47
2022-09-28T18:03:44.804Z,98423.53
2022-09-28T18:06:19.994Z,98418.65
2022-09-28T18:08:51.452Z,98427.95
2022-09-28T18:11:19.883Z,98428.52
2022-09-28T18:13:50.464Z,98433.25
2022-09-28T18:16:23.447Z,98432.71
2022-09-28T18:18:59.614Z,98442.10
2022-09-28T18:21:37.921Z,98447.50
2022-09-28T18:24:06.684Z,98453.85
2022-09-28T18:26:37.685Z,98456.84
2022-09-28T18:29:11.984Z,98455.80
2022-09-28T18:31:52.126Z,98456.43
2022-09-28T18:34:21.071Z,98456.45
2022-09-28T18:37:04.822Z,98459.64
2022-09-28T18:39:42.929Z,98464.48
2022-09-28T18:42:20.821Z,98465.73
2022-09-28T18:45:16.509Z,98472.05
2022-09-28T18:47:55.288Z,98475.36
2022-09-28T18:50:27.424Z,98477.16
2022-09-28T18:53:11.899Z,98482.77
2022-09-28T18:55:42.946Z,98486.05
2022-09-28T18:58:21.265Z,98484.97
2022-09-28T19:01:08.457Z,98492.36
2022-09-28T19:03:47.146Z,98491.41
2022-09-28T19:06:20.244Z,98497.82
2022-09-28T19:08:53.502Z,98502.61
2022-09-28T19:11:29.156Z,98502.42
2022-09-28T19:13:58.449Z,98503.91
2022-09-28T19:16:28.486Z,98501.48
2022-09-28T19:19:03.291Z,98504.00
2022-09-28T19:21:32.224Z,98508.00
2022-09-28T19:24:07.571Z,98513.36
2022-09-28T19:26:41.548Z,98517.84
2022-09-28T19:29:13.071Z,98519.34
2022-09-28T19:31:44.081Z,98518.70
2022-09-28T19:34:15.764Z,98517.55
2022-09-28T19:36:47.342Z,98515.34
2022-09-28T19:39:19.846Z,98507.70
2022-09-28T19:41:51.418Z,98510.34
2022-09-28T19:44:27.957Z,98511.45
2022-09-28T19:47:07.719Z,98514.31
2022-09-28T19:49:43.209Z,98516.05
2022-09-28T19:52:16.840Z,98516.48
2022-09-28T19:55:20.203Z,98529.39
2022-09-28T19:57:56.170Z,98535.50
2022-09-28T20:00:27.293Z,98541.02
2022-09-28T20:03:19.906Z,98542.48
2022-09-28T20:05:49.620Z,98547.79
2022-09-28T20:08:27.148Z,98549.59
2022-09-28T20:11:06.051Z,98554.56
2022-09-28T20:13:41.877Z,98559.85
2022-09-28T20:16:24.602Z,98561.02
2022-09-28T20:19:08.388Z,98563.98
2022-09-28T20:21:49.112Z,98572.24
2022-09-28T20:24:40.743Z,98575.88
2022-09-28T20:27:24.263Z,98580.92
2022-09-28T20:29:59.208Z,98583.45
2022-09-28T20:32:49.657Z,98588.18
2022-09-28T20:35:30.437Z,98590.79
2022-09-28T20:38:13.986Z,98595.28
2022-09-28T20:40:51.936Z,98596.59
2022-09-28T20:43:23.656Z,98599.06
2022-09-28T20:45:52.136Z,98606.00
2022-09-28T20:48:20.461Z,98612.42
2022-09-28T20:51:12.658Z,98613.28
2022-09-28T20:53:52.255Z,98619.20
2022-09-28T20:56:32.636Z,98624.39
2022-09-28T20:59:04.039Z,98628.67
2022-09-28T21:01:39.098Z,98632.45
2022-09-28T21:04:17.675Z,98638.45
2022-09-28T21:06:51.427Z,98642.36
2022-09-28T21:09:19.659Z,98647.10
2022-09-28T21:11:48.305Z,98646.79
2022-09-28T21:14:18.883Z,98646.41
2022-09-28T21:16:51.009Z,98644.61
2022-09-28T21:19:20.935Z,98647.95
2022-09-28T21:21:51.964Z,98650.00
2022-09-28T21:24:29.605Z,98651.06
2022-09-28T21:27:00.094Z,98651.09
2022-09-28T21:29:49.291Z,98652.45
2022-09-28T21:32:29.124Z,98657.03
2022-09-28T21:35:09.364Z,98660.95
2022-09-28T21:37:40.635Z,98660.08
2022-09-28T21:40:11.670Z,98660.02
2022-09-28T21:42:53.711Z,98662.98
2022-09-28T21:45:40.706Z,98664.52
2022-09-28T21:48:15.807Z,98672.13
2022-09-28T21:51:01.022Z,98675.92
2022-09-28T21:53:37.441Z,98676.88
2022-09-28T21:56:16.883Z,98677.13
2022-09-28T21:59:01.476Z,98681.85
2022-09-28T22:02:20.162Z,98682.08
2022-09-28T22:04:51.911Z,98687.40
2022-09-28T22:07:47.242Z,98688.59
2022-09-28T22:10:18.961Z,98688.83
2022-09-28T22:12:51.423Z,98688.83
2022-09-28T22:15:23.675Z,98689.77
2022-09-28T22:18:07.778Z,98692.18
2022-09-28T22:20:38.837Z,98695.45
2022-09-28T22:23:28.371Z,98693.91
2022-09-28T22:26:18.069Z,98695.11
2022-09-28T22:29:10.159Z,98692.38
2022-09-28T22:31:42.487Z,98696.87
2022-09-28T22:34:34.291Z,98693.91
2022-09-28T22:37:15.024Z,98693.52
2022-09-28T22:39:48.371Z,98694.10
2022-09-28T22:42:17.400Z,98694.95
2022-09-28T22:44:55.244Z,98699.98
2022-09-28T22:47:26.464Z,98700.38
2022-09-28T22:49:58.077Z,98701.97
2022-09-28T22:52:33.680Z,98706.77
2022-09-28T22:55:30.525Z,98708.63
2022-09-28T22:58:15.692Z,98711.31
2022-09-28T23:01:11.400Z,98715.26
2022-09-28T23:03:44.783Z,98718.02
2022-09-28T23:06:24.729Z,98716.05
2022-09-28T23:09:04.816Z,98715.75
2022-09-28T23:11:49.829Z,98712.89
2022-09-28T23:14:22.933Z,98717.23
2022-09-28T23:16:58.735Z,98717.40
2022-09-28T23:19:28.447Z,98718.25
2022-09-28T23:22:00.032Z,98713.97
2022-09-28T23:24:28.355Z,98713.86
2022-09-28T23:27:17.576Z,98717.42
2022-09-28T23:29:57.970Z,98721.58
2022-09-28T23:32:59.456Z,98723.02
2022-09-28T23:35:43.565Z,98724.14
2022-09-28T23:38:27.047Z,98722.61
2022-09-28T23:41:10.580Z,98722.59
2022-09-28T23:43:48.375Z,98720.46
2022-09-28T23:46:30.783Z,98717.23
2022-09-28T23:49:07.971Z,98709.84
2022-09-28T23:51:41.717Z,98711.83
2022-09-28T23:54:13.283Z,98712.12
2022-09-28T23:56:50.555Z,98709.83
2022-09-28T23:59:36.729Z,98718.00
